createdAt,value
2023-02-18T00:01:54.024Z,10.82
2023-02-18T00:04:22.908Z,10.77
2023-02-18T00:06:53.529Z,10.79
2023-02-18T00:09:25.949Z,10.75
2023-02-18T00:11:55.076Z,10.74
2023-02-18T00:14:23.749Z,10.76
2023-02-18T00:16:52.486Z,10.75
2023-02-18T00:19:22.793Z,10.68
2023-02-18T00:21:51.525Z,10.61
2023-02-18T00:24:20.122Z,10.66
2023-02-18T00:26:52.995Z,10.68
2023-02-18T00:29:21.595Z,10.69
2023-02-18T00:31:50.265Z,10.74
2023-02-18T00:34:18.866Z,10.74
2023-02-18T00:36:47.179Z,10.66
2023-02-18T00:39:15.962Z,10.62
2023-02-18T00:41:45.489Z,10.60
2023-02-18T00:44:15.360Z,10.55
2023-02-18T00:46:43.921Z,10.50
2023-02-18T00:49:12.550Z,10.47
2023-02-18T00:51:41.642Z,10.42
2023-02-18T00:54:10.917Z,10.45
2023-02-18T00:56:39.423Z,10.42
2023-02-18T00:59:08.045Z,10.46
2023-02-18T01:01:38.123Z,10.41
2023-02-18T01:04:07.049Z,10.47
2023-02-18T01:06:35.694Z,10.40
2023-02-18T01:09:04.364Z,10.37
2023-02-18T01:11:33.176Z,10.31
2023-02-18T01:14:01.654Z,10.29
2023-02-18T01:16:30.983Z,10.28
2023-02-18T01:19:00.871Z,10.28
2023-02-18T01:21:29.736Z,10.27
2023-02-18T01:23:58.393Z,10.25
2023-02-18T01:26:26.938Z,10.27
2023-02-18T01:28:55.287Z,10.26
2023-02-18T01:31:23.887Z,10.22
2023-02-18T01:33:52.278Z,10.27
2023-02-18T01:36:22.707Z,10.28
2023-02-18T01:38:51.293Z,10.26
2023-02-18T01:41:19.696Z,10.23
2023-02-18T01:43:48.405Z,10.23
2023-02-18T01:46:20.173Z,10.27
2023-02-18T01:48:53.518Z,10.28
2023-02-18T01:51:30.123Z,10.35
2023-02-18T01:54:02.077Z,10.39
2023-02-18T01:56:34.071Z,10.50
2023-02-18T01:59:06.199Z,10.51
2023-02-18T02:01:35.576Z,10.52
2023-02-18T02:04:04.280Z,10.50
2023-02-18T02:06:36.273Z,10.50
2023-02-18T02:09:07.211Z,10.49
2023-02-18T02:12:00.766Z,10.50
2023-02-18T02:14:47.134Z,10.50
2023-02-18T02:17:28.732Z,10.53
2023-02-18T02:20:34.746Z,10.51
2023-02-18T02:23:42.296Z,10.53
2023-02-18T02:26:38.873Z,10.56
2023-02-18T02:29:31.592Z,10.58
2023-02-18T02:32:34.964Z,10.62
2023-02-18T02:35:11.341Z,10.62
2023-02-18T02:37:46.188Z,10.64
2023-02-18T02:40:27.481Z,10.66
2023-02-18T02:43:07.053Z,10.66
2023-02-18T02:45:45.767Z,10.65
2023-02-18T02:48:22.714Z,10.65
2023-02-18T02:50:58.624Z,10.69
2023-02-18T02:53:31.612Z,10.73
2023-02-18T02:56:00.193Z,10.73
2023-02-18T02:58:28.967Z,10.76
2023-02-18T03:01:15.473Z,10.74
2023-02-18T03:04:16.150Z,10.77
2023-02-18T03:07:02.491Z,10.78
2023-02-18T03:09:41.574Z,10.79
2023-02-18T03:12:18.697Z,10.78
2023-02-18T03:14:52.673Z,10.77
2023-02-18T03:17:28.038Z,10.78
2023-02-18T03:20:01.382Z,10.75
2023-02-18T03:22:35.716Z,10.80
2023-02-18T03:25:05.668Z,10.86
2023-02-18T03:27:40.284Z,10.75
2023-02-18T03:30:14.890Z,10.72
2023-02-18T03:32:44.402Z,10.79
2023-02-18T03:35:15.917Z,10.81
2023-02-18T03:37:51.667Z,10.75
2023-02-18T03:40:21.497Z,10.70
2023-02-18T03:42:50.038Z,10.55
2023-02-18T03:45:18.598Z,10.46
2023-02-18T03:47:48.408Z,10.43
2023-02-18T03:50:17.209Z,10.45
2023-02-18T03:52:47.350Z,10.42
2023-02-18T03:55:16.085Z,10.43
2023-02-18T03:57:44.946Z,10.48
2023-02-18T04:00:14.265Z,10.46
2023-02-18T04:02:43.642Z,10.49
2023-02-18T04:05:12.772Z,10.51
2023-02-18T04:07:41.356Z,10.49
2023-02-18T04:10:12.646Z,10.43
2023-02-18T04:12:41.249Z,10.25
2023-02-18T04:15:10.978Z,9.91
2023-02-18T04:17:39.521Z,9.78
2023-02-18T04:20:09.538Z,9.69
2023-02-18T04:22:37.952Z,9.68
2023-02-18T04:25:07.038Z,9.69
2023-02-18T04:27:42.851Z,9.68
2023-02-18T04:30:12.227Z,9.69
2023-02-18T04:32:40.565Z,9.69
2023-02-18T04:35:09.899Z,9.70
2023-02-18T04:37:38.590Z,9.74
2023-02-18T04:40:09.258Z,9.73
2023-02-18T04:42:38.028Z,9.75
2023-02-18T04:45:08.974Z,9.78
2023-02-18T04:47:39.270Z,9.80
2023-02-18T04:50:09.677Z,9.86
2023-02-18T04:52:38.286Z,9.91
2023-02-18T04:55:08.523Z,9.92
2023-02-18T04:57:37.237Z,9.92
2023-02-18T05:00:09.303Z,9.88
2023-02-18T05:02:37.942Z,9.91
2023-02-18T05:05:06.471Z,9.90
2023-02-18T05:07:36.125Z,9.96
2023-02-18T05:10:05.079Z,9.96
2023-02-18T05:12:33.805Z,9.99
2023-02-18T05:15:02.416Z,10.03
2023-02-18T05:17:32.316Z,10.03
2023-02-18T05:20:00.912Z,10.01
2023-02-18T05:22:29.420Z,10.00
2023-02-18T05:24:57.891Z,9.99
2023-02-18T05:27:26.499Z,9.92
2023-02-18T05:29:55.083Z,9.83
2023-02-18T05:32:23.741Z,9.79
2023-02-18T05:34:53.821Z,9.77
2023-02-18T05:37:22.342Z,9.78
2023-02-18T05:39:50.981Z,9.80
2023-02-18T05:42:19.737Z,9.74
2023-02-18T05:44:48.445Z,9.71
2023-02-18T05:47:17.430Z,9.68
2023-02-18T05:49:46.368Z,9.72
2023-02-18T05:52:16.299Z,9.74
2023-02-18T05:54:45.209Z,9.77
2023-02-18T05:57:16.495Z,9.73
2023-02-18T05:59:45.367Z,9.78
2023-02-18T06:02:13.746Z,9.76
2023-02-18T06:04:42.420Z,9.78
2023-02-18T06:07:10.934Z,9.76
2023-02-18T06:09:40.992Z,9.73
2023-02-18T06:12:09.641Z,9.72
2023-02-18T06:14:38.232Z,9.78
2023-02-18T06:17:08.728Z,9.78
2023-02-18T06:19:37.454Z,9.83
2023-02-18T06:22:08.175Z,9.90
2023-02-18T06:24:36.851Z,9.82
2023-02-18T06:27:07.074Z,9.77
2023-02-18T06:29:37.017Z,9.83
2023-02-18T06:32:05.962Z,9.76
2023-02-18T06:34:34.553Z,9.75
2023-02-18T06:37:03.283Z,9.74
2023-02-18T06:39:32.245Z,9.73
2023-02-18T06:42:00.921Z,9.72
2023-02-18T06:44:30.940Z,9.72
2023-02-18T06:46:59.363Z,9.74
2023-02-18T06:49:29.072Z,9.65
2023-02-18T06:51:57.579Z,9.70
2023-02-18T06:54:26.671Z,9.67
2023-02-18T06:56:55.453Z,9.72
2023-02-18T06:59:24.667Z,9.70
2023-02-18T07:01:54.760Z,9.72
2023-02-18T07:04:23.323Z,9.74
2023-02-18T07:06:51.846Z,9.75
2023-02-18T07:09:20.610Z,9.80
2023-02-18T07:11:49.180Z,9.83
2023-02-18T07:14:17.791Z,9.90
2023-02-18T07:16:46.310Z,9.88
2023-02-18T07:19:16.373Z,9.90
2023-02-18T07:21:45.013Z,9.88
2023-02-18T07:24:13.509Z,9.88
2023-02-18T07:26:42.260Z,9.88
2023-02-18T07:29:10.878Z,9.85
2023-02-18T07:31:39.583Z,9.89
2023-02-18T07:34:08.211Z,9.90
2023-02-18T07:36:38.578Z,9.88
2023-02-18T07:39:07.211Z,9.87
2023-02-18T07:41:36.045Z,9.87
2023-02-18T07:44:04.660Z,9.85
2023-02-18T07:46:33.390Z,9.84
2023-02-18T07:49:02.200Z,9.84
2023-02-18T07:51:30.733Z,9.76
2023-02-18T07:54:00.945Z,9.62
2023-02-18T07:56:29.478Z,9.51
2023-02-18T07:58:59.798Z,9.46
2023-02-18T08:01:28.364Z,9.45
2023-02-18T08:03:57.021Z,9.48
2023-02-18T08:06:29.884Z,9.52
2023-02-18T08:08:58.408Z,9.53
2023-02-18T08:11:28.790Z,9.59
2023-02-18T08:13:57.389Z,9.59
2023-02-18T08:16:26.456Z,9.61
2023-02-18T08:18:56.021Z,9.64
2023-02-18T08:21:26.512Z,9.63
2023-02-18T08:23:55.731Z,9.65
2023-02-18T08:26:24.225Z,9.60
2023-02-18T08:28:54.416Z,9.57
2023-02-18T08:31:26.793Z,9.48
2023-02-18T08:33:56.480Z,9.38
2023-02-18T08:36:26.088Z,9.29
2023-02-18T08:38:54.757Z,9.22
2023-02-18T08:41:23.850Z,9.18
2023-02-18T08:43:53.876Z,9.17
2023-02-18T08:46:35.007Z,9.15
2023-02-18T08:49:06.745Z,9.14
2023-02-18T08:51:36.367Z,9.14
2023-02-18T08:54:05.127Z,9.16
2023-02-18T08:56:33.997Z,9.16
2023-02-18T08:59:09.047Z,9.18
2023-02-18T09:01:37.653Z,9.22
2023-02-18T09:04:06.659Z,9.22
2023-02-18T09:06:39.616Z,9.21
2023-02-18T09:09:12.145Z,9.19
2023-02-18T09:11:40.929Z,9.14
2023-02-18T09:14:12.668Z,9.16
2023-02-18T09:16:42.207Z,9.12
2023-02-18T09:19:11.949Z,9.09
2023-02-18T09:21:41.805Z,9.12
2023-02-18T09:24:14.065Z,9.16
2023-02-18T09:26:42.867Z,9.20
2023-02-18T09:29:13.097Z,9.25
2023-02-18T09:31:46.825Z,9.32
2023-02-18T09:34:15.623Z,9.34
2023-02-18T09:36:44.159Z,9.38
2023-02-18T09:39:14.051Z,9.42
2023-02-18T09:41:46.849Z,9.50
2023-02-18T09:44:23.601Z,9.55
2023-02-18T09:46:55.901Z,9.60
2023-02-18T09:49:28.418Z,9.66
2023-02-18T09:51:59.266Z,9.75
2023-02-18T09:54:28.992Z,9.75
2023-02-18T09:56:57.708Z,9.83
2023-02-18T09:59:28.925Z,9.93
2023-02-18T10:02:01.467Z,10.03
2023-02-18T10:04:37.170Z,10.08
2023-02-18T10:07:07.354Z,10.11
2023-02-18T10:09:41.946Z,10.16
2023-02-18T10:12:16.649Z,10.23
2023-02-18T10:14:51.770Z,10.18
2023-02-18T10:17:22.754Z,10.22
2023-02-18T10:19:53.520Z,10.25
2023-02-18T10:22:25.860Z,10.27
2023-02-18T10:24:57.378Z,10.31
2023-02-18T10:27:28.421Z,10.30
2023-02-18T10:30:09.398Z,10.31
2023-02-18T10:32:42.303Z,10.39
2023-02-18T10:35:21.883Z,10.28
2023-02-18T10:38:02.637Z,10.28
2023-02-18T10:40:43.512Z,10.27
2023-02-18T10:43:21.053Z,10.35
2023-02-18T10:46:01.889Z,10.32
2023-02-18T10:48:43.622Z,10.32
2023-02-18T10:51:18.727Z,10.29
2023-02-18T10:53:51.082Z,10.34
2023-02-18T10:56:40.294Z,10.30
2023-02-18T10:59:15.259Z,10.30
2023-02-18T11:01:47.845Z,10.32
2023-02-18T11:04:20.501Z,10.30
2023-02-18T11:06:51.622Z,10.27
2023-02-18T11:09:39.719Z,10.07
2023-02-18T11:12:17.232Z,9.99
2023-02-18T11:14:48.830Z,9.93
2023-02-18T11:17:23.483Z,9.90
2023-02-18T11:19:59.647Z,9.84
2023-02-18T11:22:32.790Z,9.81
2023-02-18T11:25:23.280Z,9.83
2023-02-18T11:27:55.068Z,9.86
2023-02-18T11:30:27.311Z,9.86
2023-02-18T11:33:01.685Z,9.88
2023-02-18T11:35:33.644Z,9.90
2023-02-18T11:38:16.183Z,9.97
2023-02-18T11:40:44.950Z,9.99
2023-02-18T11:43:16.878Z,10.04
2023-02-18T11:45:45.491Z,10.15
2023-02-18T11:48:21.158Z,10.14
2023-02-18T11:50:54.287Z,10.14
2023-02-18T11:53:33.018Z,10.09
2023-02-18T11:56:07.681Z,10.10
2023-02-18T11:58:41.516Z,10.08
2023-02-18T12:01:19.929Z,10.06
2023-02-18T12:03:55.677Z,10.08
2023-02-18T12:06:30.089Z,10.07
2023-02-18T12:09:03.376Z,10.07
2023-02-18T12:11:37.903Z,10.07
2023-02-18T12:14:17.545Z,10.09
2023-02-18T12:17:06.698Z,10.24
2023-02-18T12:19:55.878Z,10.50
2023-02-18T12:22:34.370Z,10.57
2023-02-18T12:25:26.727Z,10.64
2023-02-18T12:28:11.537Z,10.64
2023-02-18T12:31:05.143Z,10.63
2023-02-18T12:33:43.423Z,10.67
2023-02-18T12:36:24.506Z,10.61
2023-02-18T12:39:04.182Z,10.65
2023-02-18T12:41:49.938Z,10.60
2023-02-18T12:44:45.302Z,10.48
2023-02-18T12:47:31.778Z,10.51
2023-02-18T12:50:37.654Z,10.66
2023-02-18T12:53:37.476Z,10.83
2023-02-18T12:56:32.689Z,11.05
2023-02-18T12:59:10.524Z,11.16
2023-02-18T13:01:50.062Z,11.12
2023-02-18T13:04:52.888Z,11.11
2023-02-18T13:08:02.667Z,11.03
2023-02-18T13:10:54.385Z,10.86
2023-02-18T13:13:25.386Z,10.85
2023-02-18T13:15:59.634Z,10.83
2023-02-18T13:18:34.612Z,10.85
2023-02-18T13:21:06.942Z,10.89
2023-02-18T13:23:39.629Z,10.91
2023-02-18T13:26:15.856Z,10.96
2023-02-18T13:28:51.604Z,11.00
2023-02-18T13:31:42.616Z,10.91
2023-02-18T13:34:18.985Z,10.89
2023-02-18T13:36:58.955Z,10.90
2023-02-18T13:39:28.594Z,10.90
2023-02-18T13:42:24.538Z,10.90
2023-02-18T13:45:26.392Z,11.01
2023-02-18T13:47:56.270Z,11.03
2023-02-18T13:50:43.796Z,11.14
2023-02-18T13:53:32.734Z,11.30
2023-02-18T13:56:11.127Z,11.28
2023-02-18T13:58:50.886Z,11.36
2023-02-18T14:01:26.796Z,11.31
2023-02-18T14:04:04.950Z,11.23
2023-02-18T14:06:38.034Z,11.13
2023-02-18T14:09:40.477Z,11.13
2023-02-18T14:12:29.024Z,11.04
2023-02-18T14:15:00.321Z,11.02
2023-02-18T14:17:44.473Z,11.01
2023-02-18T14:20:46.987Z,11.04
2023-02-18T14:23:56.477Z,11.00
2023-02-18T14:26:33.482Z,11.02
2023-02-18T14:29:09.857Z,10.96
2023-02-18T14:31:49.231Z,10.99
2023-02-18T14:34:52.588Z,11.00
2023-02-18T14:37:50.838Z,10.99
2023-02-18T14:40:55.063Z,10.87
2023-02-18T14:43:40.512Z,10.88
2023-02-18T14:46:22.576Z,11.41
2023-02-18T14:49:16.391Z,11.26
2023-02-18T14:51:48.388Z,11.10
2023-02-18T14:54:21.471Z,11.32
2023-02-18T14:56:58.249Z,11.24
2023-02-18T14:59:31.091Z,11.23
2023-02-18T15:01:59.515Z,11.15
2023-02-18T15:04:29.428Z,11.15
2023-02-18T15:07:02.958Z,11.24
2023-02-18T15:09:31.623Z,11.41
2023-02-18T15:12:05.208Z,11.35
2023-02-18T15:14:38.687Z,11.29
2023-02-18T15:17:12.916Z,11.19
2023-02-18T15:19:47.257Z,11.18
2023-02-18T15:22:21.274Z,11.29
2023-02-18T15:24:51.907Z,11.21
2023-02-18T15:27:23.619Z,11.18
2023-02-18T15:29:53.631Z,10.98
2023-02-18T15:32:27.557Z,10.79
2023-02-18T15:35:02.344Z,10.78
2023-02-18T15:37:32.664Z,10.82
2023-02-18T15:40:01.412Z,10.88
2023-02-18T15:42:32.695Z,10.97
2023-02-18T15:45:06.503Z,11.16
2023-02-18T15:47:36.395Z,11.11
2023-02-18T15:50:08.554Z,11.59
2023-02-18T15:52:40.826Z,11.94
2023-02-18T15:55:15.284Z,12.62
2023-02-18T15:57:45.312Z,12.63
2023-02-18T16:00:27.409Z,12.95
2023-02-18T16:03:03.904Z,13.47
2023-02-18T16:05:42.868Z,13.11
2023-02-18T16:08:16.963Z,13.30
2023-02-18T16:10:56.409Z,13.15
2023-02-18T16:13:26.962Z,12.17
2023-02-18T16:15:57.707Z,12.67
2023-02-18T16:18:32.736Z,12.62
2023-02-18T16:21:07.345Z,12.86
2023-02-18T16:23:43.801Z,13.05
2023-02-18T16:26:24.707Z,12.20
2023-02-18T16:28:55.593Z,12.48
2023-02-18T16:31:24.443Z,12.18
2023-02-18T16:33:53.757Z,11.68
2023-02-18T16:36:26.540Z,11.44
2023-02-18T16:38:55.252Z,11.10
2023-02-18T16:41:23.985Z,10.92
2023-02-18T16:43:54.391Z,10.67
2023-02-18T16:46:24.882Z,10.58
2023-02-18T16:48:56.850Z,10.46
2023-02-18T16:51:34.787Z,10.42
2023-02-18T16:54:03.336Z,10.42
2023-02-18T16:56:35.777Z,10.45
2023-02-18T16:59:04.244Z,10.38
2023-02-18T17:01:37.574Z,10.33
2023-02-18T17:04:07.185Z,10.36
2023-02-18T17:06:36.998Z,10.31
2023-02-18T17:09:15.127Z,10.29
2023-02-18T17:11:45.444Z,10.34
2023-02-18T17:14:18.441Z,10.31
2023-02-18T17:16:47.423Z,10.24
2023-02-18T17:19:17.674Z,10.17
2023-02-18T17:21:49.065Z,10.11
2023-02-18T17:24:20.867Z,10.13
2023-02-18T17:26:49.243Z,10.05
2023-02-18T17:29:17.575Z,10.03
2023-02-18T17:31:47.788Z,9.99
2023-02-18T17:34:20.840Z,10.00
2023-02-18T17:36:50.798Z,9.94
2023-02-18T17:39:19.977Z,9.96
2023-02-18T17:41:48.695Z,9.88
2023-02-18T17:44:18.139Z,9.91
2023-02-18T17:46:46.945Z,9.93
2023-02-18T17:49:16.755Z,9.91
2023-02-18T17:51:48.984Z,9.87
2023-02-18T17:54:23.065Z,9.87
2023-02-18T17:56:51.829Z,9.84
2023-02-18T17:59:20.418Z,9.85
2023-02-18T18:01:49.051Z,9.81
2023-02-18T18:04:20.149Z,9.81
2023-02-18T18:06:50.094Z,9.78
2023-02-18T18:09:20.039Z,9.78
2023-02-18T18:11:48.775Z,9.76
2023-02-18T18:14:17.317Z,9.75
2023-02-18T18:16:46.072Z,9.73
2023-02-18T18:19:14.459Z,9.73
2023-02-18T18:21:42.941Z,9.70
2023-02-18T18:24:14.173Z,9.70
2023-02-18T18:26:44.368Z,9.68
2023-02-18T18:29:12.857Z,9.67
2023-02-18T18:31:41.581Z,9.66
2023-02-18T18:34:11.453Z,9.68
2023-02-18T18:36:40.012Z,9.63
2023-02-18T18:39:08.470Z,9.64
2023-02-18T18:41:37.355Z,9.61
2023-02-18T18:44:08.666Z,9.62
2023-02-18T18:46:37.374Z,9.60
2023-02-18T18:49:05.842Z,9.60
2023-02-18T18:51:35.241Z,9.62
2023-02-18T18:54:03.997Z,9.65
2023-02-18T18:56:32.544Z,9.64
2023-02-18T18:59:01.233Z,9.61
2023-02-18T19:01:31.338Z,9.61
2023-02-18T19:03:59.928Z,9.63
2023-02-18T19:06:28.507Z,9.61
2023-02-18T19:08:58.107Z,9.68
2023-02-18T19:11:26.761Z,9.61
2023-02-18T19:13:55.247Z,9.60
2023-02-18T19:16:29.779Z,9.61
2023-02-18T19:19:00.018Z,9.59
2023-02-18T19:21:28.655Z,9.60
2023-02-18T19:23:57.298Z,9.60
2023-02-18T19:26:25.872Z,9.59
2023-02-18T19:28:54.397Z,9.59
2023-02-18T19:31:24.874Z,9.56
2023-02-18T19:33:53.866Z,9.56
2023-02-18T19:36:23.843Z,9.54
2023-02-18T19:38:52.412Z,9.50
2023-02-18T19:41:21.024Z,9.47
2023-02-18T19:43:49.631Z,9.45
2023-02-18T19:46:20.075Z,9.41
2023-02-18T19:48:52.436Z,9.39
2023-02-18T19:51:23.510Z,9.36
2023-02-18T19:53:54.983Z,9.35
2023-02-18T19:56:24.671Z,9.38
2023-02-18T19:58:56.682Z,9.34
2023-02-18T20:01:25.246Z,9.36
2023-02-18T20:03:53.957Z,9.34
2023-02-18T20:06:22.887Z,9.33
2023-02-18T20:08:55.069Z,9.35
2023-02-18T20:11:23.643Z,9.31
2023-02-18T20:13:52.121Z,9.32
2023-02-18T20:16:20.778Z,9.32
2023-02-18T20:18:49.491Z,9.30
2023-02-18T20:21:18.035Z,9.28
2023-02-18T20:23:46.549Z,9.28
2023-02-18T20:26:16.617Z,9.23
2023-02-18T20:28:45.499Z,9.21
2023-02-18T20:31:15.685Z,9.23
2023-02-18T20:33:45.055Z,9.21
2023-02-18T20:36:15.964Z,9.20
2023-02-18T20:38:44.642Z,9.21
2023-02-18T20:41:17.973Z,9.21
2023-02-18T20:43:46.851Z,9.20
2023-02-18T20:46:17.468Z,9.20
2023-02-18T20:48:47.003Z,9.21
2023-02-18T20:51:18.658Z,9.20
2023-02-18T20:53:47.910Z,9.23
2023-02-18T20:56:21.068Z,9.25
2023-02-18T20:58:50.030Z,9.22
2023-02-18T21:01:20.545Z,9.20
2023-02-18T21:03:50.521Z,9.21
2023-02-18T21:06:21.400Z,9.19
2023-02-18T21:08:51.337Z,9.19
2023-02-18T21:11:23.401Z,9.19
2023-02-18T21:13:53.870Z,9.18
2023-02-18T21:16:23.444Z,9.18
2023-02-18T21:18:52.757Z,9.18
2023-02-18T21:21:24.463Z,9.18
2023-02-18T21:23:53.276Z,9.18
2023-02-18T21:26:27.460Z,9.18
2023-02-18T21:28:57.992Z,9.18
2023-02-18T21:31:28.763Z,9.17
2023-02-18T21:33:57.850Z,9.17
2023-02-18T21:36:28.130Z,9.19
2023-02-18T21:38:59.225Z,9.14
2023-02-18T21:41:30.954Z,9.10
2023-02-18T21:43:59.471Z,9.07
2023-02-18T21:46:30.618Z,9.06
2023-02-18T21:49:10.960Z,9.06
2023-02-18T21:52:00.819Z,9.04
2023-02-18T21:54:31.713Z,9.04
2023-02-18T21:57:04.055Z,9.05
2023-02-18T21:59:34.666Z,9.05
2023-02-18T22:02:04.681Z,9.03
2023-02-18T22:04:35.808Z,9.03
2023-02-18T22:07:04.814Z,9.04
2023-02-18T22:09:33.401Z,9.04
2023-02-18T22:12:03.501Z,9.04
2023-02-18T22:14:32.277Z,9.03
2023-02-18T22:17:00.920Z,9.02
2023-02-18T22:19:29.464Z,9.03
2023-02-18T22:21:58.402Z,9.02
2023-02-18T22:24:27.825Z,9.03
2023-02-18T22:26:56.497Z,9.01
2023-02-18T22:29:26.439Z,9.00
2023-02-18T22:31:55.252Z,9.02
2023-02-18T22:34:24.779Z,9.00
2023-02-18T22:36:53.170Z,8.98
2023-02-18T22:39:21.611Z,8.97
2023-02-18T22:41:50.211Z,8.97
2023-02-18T22:44:20.766Z,8.99
2023-02-18T22:46:51.018Z,8.94
2023-02-18T22:49:19.573Z,8.95
2023-02-18T22:51:48.118Z,8.93
2023-02-18T22:54:18.493Z,8.93
2023-02-18T22:56:48.703Z,8.93
2023-02-18T22:59:19.560Z,8.91
2023-02-18T23:01:50.670Z,8.91
2023-02-18T23:04:21.022Z,8.89
2023-02-18T23:06:50.040Z,8.87
2023-02-18T23:09:21.018Z,8.89
2023-02-18T23:11:52.999Z,8.86
2023-02-18T23:14:22.967Z,8.83
2023-02-18T23:17:14.947Z,8.86
2023-02-18T23:19:45.574Z,8.82
2023-02-18T23:22:16.055Z,8.82
2023-02-18T23:24:46.980Z,8.77
2023-02-18T23:27:16.890Z,8.72
2023-02-18T23:29:45.320Z,8.72
2023-02-18T23:32:15.343Z,8.73
2023-02-18T23:34:43.850Z,8.70
2023-02-18T23:37:13.911Z,8.70
2023-02-18T23:39:42.173Z,8.67
2023-02-18T23:42:10.896Z,8.67
2023-02-18T23:44:39.471Z,8.63
2023-02-18T23:47:08.760Z,8.62
2023-02-18T23:49:38.780Z,8.59
2023-02-18T23:52:07.587Z,8.58
2023-02-18T23:54:36.459Z,8.54
2023-02-18T23:57:05.194Z,8.57
2023-02-18T23:59:34.340Z,8.54
